sensor_id;sensor_type;location;lat;lon;timestamp;temperature;humidity
23385;DHT22;11865;45.394;10.978;2022-07-01T05:21:38;29.30;99.90
23385;DHT22;11865;45.394;10.978;2022-07-01T05:24:25;30.90;99.90
23385;DHT22;11865;45.394;10.978;2022-07-01T05:26:54;30.20;99.90
23385;DHT22;11865;45.394;10.978;2022-07-01T05:29:22;30.20;99.90
23385;DHT22;11865;45.394;10.978;2022-07-01T05:31:49;29.30;99.90
23385;DHT22;11865;45.394;10.978;2022-07-01T05:34:16;29.50;99.90
23385;DHT22;11865;45.394;10.978;2022-07-01T05:36:43;29.50;99.90
23385;DHT22;11865;45.394;10.978;2022-07-01T05:39:11;29.30;99.90
23385;DHT22;11865;45.394;10.978;2022-07-01T05:41:38;30.20;99.90
23385;DHT22;11865;45.394;10.978;2022-07-01T05:44:06;31.00;99.90
23385;DHT22;11865;45.394;10.978;2022-07-01T05:46:33;30.00;99.90
23385;DHT22;11865;45.394;10.978;2022-07-01T05:49:00;30.20;99.90
23385;DHT22;11865;45.394;10.978;2022-07-01T05:51:28;29.50;99.90
23385;DHT22;11865;45.394;10.978;2022-07-01T05:53:55;29.80;99.90
23385;DHT22;11865;45.394;10.978;2022-07-01T05:56:23;31.10;99.90
23385;DHT22;11865;45.394;10.978;2022-07-01T05:58:51;31.10;99.90
23385;DHT22;11865;45.394;10.978;2022-07-01T06:01:18;31.50;99.90
23385;DHT22;11865;45.394;10.978;2022-07-01T06:03:46;29.60;99.90
23385;DHT22;11865;45.394;10.978;2022-07-01T06:06:13;30.10;99.90
23385;DHT22;11865;45.394;10.978;2022-07-01T06:08:41;31.10;99.90
23385;DHT22;11865;45.394;10.978;2022-07-01T06:11:08;30.60;99.90
23385;DHT22;11865;45.394;10.978;2022-07-01T06:13:35;31.40;99.90
23385;DHT22;11865;45.394;10.978;2022-07-01T06:16:02;31.00;99.90
23385;DHT22;11865;45.394;10.978;2022-07-01T06:18:30;30.80;99.90
23385;DHT22;11865;45.394;10.978;2022-07-01T06:20:57;30.30;99.90
23385;DHT22;11865;45.394;10.978;2022-07-01T06:23:24;30.80;99.90
23385;DHT22;11865;45.394;10.978;2022-07-01T06:25:51;31.10;99.90
23385;DHT22;11865;45.394;10.978;2022-07-01T06:28:19;30.50;99.90
23385;DHT22;11865;45.394;10.978;2022-07-01T06:30:46;29.70;99.90
23385;DHT22;11865;45.394;10.978;2022-07-01T06:33:13;29.70;99.90
23385;DHT22;11865;45.394;10.978;2022-07-01T06:35:41;30.30;99.90
23385;DHT22;11865;45.394;10.978;2022-07-01T06:38:08;29.20;99.90
23385;DHT22;11865;45.394;10.978;2022-07-01T06:40:35;29.60;99.90
23385;DHT22;11865;45.394;10.978;2022-07-01T06:43:02;29.80;99.90
23385;DHT22;11865;45.394;10.978;2022-07-01T06:45:30;29.40;99.90
23385;DHT22;11865;45.394;10.978;2022-07-01T06:47:58;30.00;99.90
23385;DHT22;11865;45.394;10.978;2022-07-01T06:50:25;30.20;99.90
23385;DHT22;11865;45.394;10.978;2022-07-01T06:52:52;30.20;99.90
23385;DHT22;11865;45.394;10.978;2022-07-01T06:55:20;30.10;99.90
23385;DHT22;11865;45.394;10.978;2022-07-01T06:57:47;30.20;99.90
23385;DHT22;11865;45.394;10.978;2022-07-01T07:00:14;30.00;99.90
23385;DHT22;11865;45.394;10.978;2022-07-01T07:02:42;29.60;99.90
23385;DHT22;11865;45.394;10.978;2022-07-01T07:05:09;29.40;99.90
23385;DHT22;11865;45.394;10.978;2022-07-01T07:07:37;29.80;99.90
23385;DHT22;11865;45.394;10.978;2022-07-01T07:10:05;30.00;99.90
23385;DHT22;11865;45.394;10.978;2022-07-01T07:12:32;29.70;99.90
23385;DHT22;11865;45.394;10.978;2022-07-01T07:14:59;29.60;99.90
23385;DHT22;11865;45.394;10.978;2022-07-01T07:17:27;29.70;99.90
23385;DHT22;11865;45.394;10.978;2022-07-01T07:19:54;29.50;99.90
23385;DHT22;11865;45.394;10.978;2022-07-01T07:22:22;29.90;99.90
23385;DHT22;11865;45.394;10.978;2022-07-01T07:24:49;29.90;99.90
23385;DHT22;11865;45.394;10.978;2022-07-01T07:27:17;29.30;99.90
23385;DHT22;11865;45.394;10.978;2022-07-01T07:29:44;30.00;99.90
23385;DHT22;11865;45.394;10.978;2022-07-01T07:32:11;29.80;99.90
23385;DHT22;11865;45.394;10.978;2022-07-01T07:34:38;30.10;99.90
23385;DHT22;11865;45.394;10.978;2022-07-01T07:37:06;30.30;99.90
23385;DHT22;11865;45.394;10.978;2022-07-01T07:39:33;30.70;99.90
23385;DHT22;11865;45.394;10.978;2022-07-01T07:42:01;31.10;99.90
23385;DHT22;11865;45.394;10.978;2022-07-01T07:44:28;30.40;99.90
23385;DHT22;11865;45.394;10.978;2022-07-01T07:46:55;29.60;99.90
23385;DHT22;11865;45.394;10.978;2022-07-01T07:49:24;29.90;99.90
23385;DHT22;11865;45.394;10.978;2022-07-01T07:51:51;30.60;99.90
23385;DHT22;11865;45.394;10.978;2022-07-01T07:54:19;30.80;99.90
23385;DHT22;11865;45.394;10.978;2022-07-01T07:56:46;30.70;99.90
23385;DHT22;11865;45.394;10.978;2022-07-01T07:59:13;31.00;99.90
23385;DHT22;11865;45.394;10.978;2022-07-01T08:01:41;31.40;99.90
23385;DHT22;11865;45.394;10.978;2022-07-01T08:04:08;30.50;99.90
23385;DHT22;11865;45.394;10.978;2022-07-01T08:06:35;30.70;99.90
23385;DHT22;11865;45.394;10.978;2022-07-01T08:09:03;30.90;99.90
23385;DHT22;11865;45.394;10.978;2022-07-01T08:11:30;31.20;99.90
23385;DHT22;11865;45.394;10.978;2022-07-01T08:13:58;31.50;99.90
23385;DHT22;11865;45.394;10.978;2022-07-01T08:16:25;31.80;99.90
23385;DHT22;11865;45.394;10.978;2022-07-01T08:18:52;31.70;99.90
23385;DHT22;11865;45.394;10.978;2022-07-01T08:21:20;32.20;99.90
23385;DHT22;11865;45.394;10.978;2022-07-01T08:23:47;32.00;99.90
23385;DHT22;11865;45.394;10.978;2022-07-01T08:26:14;31.30;99.90
23385;DHT22;11865;45.394;10.978;2022-07-01T08:28:43;32.10;99.90
23385;DHT22;11865;45.394;10.978;2022-07-01T08:31:10;32.10;99.90
23385;DHT22;11865;45.394;10.978;2022-07-01T08:33:38;31.90;99.90
23385;DHT22;11865;45.394;10.978;2022-07-01T08:36:06;32.10;99.90
23385;DHT22;11865;45.394;10.978;2022-07-01T08:38:34;32.50;99.90
23385;DHT22;11865;45.394;10.978;2022-07-01T08:41:02;32.70;99.90
23385;DHT22;11865;45.394;10.978;2022-07-01T08:43:30;32.70;99.90
23385;DHT22;11865;45.394;10.978;2022-07-01T08:46:01;32.00;99.90
23385;DHT22;11865;45.394;10.978;2022-07-01T08:48:29;32.30;99.90
23385;DHT22;11865;45.394;10.978;2022-07-01T08:50:56;31.90;99.90
23385;DHT22;11865;45.394;10.978;2022-07-01T08:53:24;31.60;99.90
23385;DHT22;11865;45.394;10.978;2022-07-01T08:55:51;31.20;99.90
23385;DHT22;11865;45.394;10.978;2022-07-01T08:58:37;31.10;99.90
23385;DHT22;11865;45.394;10.978;2022-07-01T09:01:11;31.30;99.90
23385;DHT22;11865;45.394;10.978;2022-07-01T09:03:38;30.90;99.90
23385;DHT22;11865;45.394;10.978;2022-07-01T09:06:10;30.80;99.90
23385;DHT22;11865;45.394;10.978;2022-07-01T09:08:38;30.80;99.90
23385;DHT22;11865;45.394;10.978;2022-07-01T09:11:15;31.30;99.90
23385;DHT22;11865;45.394;10.978;2022-07-01T09:13:43;30.50;99.90
23385;DHT22;11865;45.394;10.978;2022-07-01T09:16:14;31.40;99.90
23385;DHT22;11865;45.394;10.978;2022-07-01T09:18:59;30.70;99.90
23385;DHT22;11865;45.394;10.978;2022-07-01T09:21:30;30.90;99.90
23385;DHT22;11865;45.394;10.978;2022-07-01T09:24:05;30.80;99.90
23385;DHT22;11865;45.394;10.978;2022-07-01T09:26:32;30.90;99.90
23385;DHT22;11865;45.394;10.978;2022-07-01T09:29:00;30.90;99.90
23385;DHT22;11865;45.394;10.978;2022-07-01T09:31:33;30.80;99.90
23385;DHT22;11865;45.394;10.978;2022-07-01T09:34:05;30.90;99.90
23385;DHT22;11865;45.394;10.978;2022-07-01T09:36:32;30.60;99.90
23385;DHT22;11865;45.394;10.978;2022-07-01T09:39:04;30.90;99.90
23385;DHT22;11865;45.394;10.978;2022-07-01T09:41:55;30.80;99.90
23385;DHT22;11865;45.394;10.978;2022-07-01T09:44:23;31.10;99.90
23385;DHT22;11865;45.394;10.978;2022-07-01T09:46:57;30.80;99.90
23385;DHT22;11865;45.394;10.978;2022-07-01T09:49:24;31.50;99.90
23385;DHT22;11865;45.394;10.978;2022-07-01T09:51:52;31.20;99.90
23385;DHT22;11865;45.394;10.978;2022-07-01T09:54:19;31.30;99.90
23385;DHT22;11865;45.394;10.978;2022-07-01T09:56:47;31.50;99.90
23385;DHT22;11865;45.394;10.978;2022-07-01T09:59:17;31.40;99.90
23385;DHT22;11865;45.394;10.978;2022-07-01T10:01:44;31.20;99.90
23385;DHT22;11865;45.394;10.978;2022-07-01T10:04:12;31.10;99.90
23385;DHT22;11865;45.394;10.978;2022-07-01T10:06:42;31.20;99.90
23385;DHT22;11865;45.394;10.978;2022-07-01T10:14:13;31.00;99.90
23385;DHT22;11865;45.394;10.978;2022-07-01T10:16:40;31.30;99.90
23385;DHT22;11865;45.394;10.978;2022-07-01T10:19:24;31.60;99.90
23385;DHT22;11865;45.394;10.978;2022-07-01T10:21:53;31.40;99.90
23385;DHT22;11865;45.394;10.978;2022-07-01T10:24:27;31.60;99.90
23385;DHT22;11865;45.394;10.978;2022-07-01T10:27:00;31.40;99.90
23385;DHT22;11865;45.394;10.978;2022-07-01T10:29:34;31.60;99.90
23385;DHT22;11865;45.394;10.978;2022-07-01T10:32:05;31.90;99.90
23385;DHT22;11865;45.394;10.978;2022-07-01T10:34:35;32.30;99.90
23385;DHT22;11865;45.394;10.978;2022-07-01T10:37:04;32.30;99.90
23385;DHT22;11865;45.394;10.978;2022-07-01T10:42:19;32.00;99.90
23385;DHT22;11865;45.394;10.978;2022-07-01T10:45:03;32.00;99.90
23385;DHT22;11865;45.394;10.978;2022-07-01T10:47:31;32.20;99.90
23385;DHT22;11865;45.394;10.978;2022-07-01T10:49:59;32.20;99.90
23385;DHT22;11865;45.394;10.978;2022-07-01T10:52:26;32.00;99.90
23385;DHT22;11865;45.394;10.978;2022-07-01T10:54:54;32.00;99.90
23385;DHT22;11865;45.394;10.978;2022-07-01T10:57:26;32.10;99.90
23385;DHT22;11865;45.394;10.978;2022-07-01T10:59:55;32.10;99.80
23385;DHT22;11865;45.394;10.978;2022-07-01T11:02:25;32.10;99.40
23385;DHT22;11865;45.394;10.978;2022-07-01T11:04:53;32.50;99.90
23385;DHT22;11865;45.394;10.978;2022-07-01T11:07:23;32.30;99.90
23385;DHT22;11865;45.394;10.978;2022-07-01T11:09:51;32.50;99.90
23385;DHT22;11865;45.394;10.978;2022-07-01T11:12:19;32.50;99.90
23385;DHT22;11865;45.394;10.978;2022-07-01T11:14:47;32.40;99.90
23385;DHT22;11865;45.394;10.978;2022-07-01T11:17:15;32.30;99.90
23385;DHT22;11865;45.394;10.978;2022-07-01T11:19:49;32.20;99.90
23385;DHT22;11865;45.394;10.978;2022-07-01T11:22:20;31.90;99.90
23385;DHT22;11865;45.394;10.978;2022-07-01T11:24:51;32.30;99.90
23385;DHT22;11865;45.394;10.978;2022-07-01T11:27:18;32.00;99.90
23385;DHT22;11865;45.394;10.978;2022-07-01T11:29:46;31.70;99.90
23385;DHT22;11865;45.394;10.978;2022-07-01T11:32:27;31.60;99.90
23385;DHT22;11865;45.394;10.978;2022-07-01T11:34:55;31.80;99.90
23385;DHT22;11865;45.394;10.978;2022-07-01T11:37:22;32.00;99.90
23385;DHT22;11865;45.394;10.978;2022-07-01T11:40:12;32.30;99.90
23385;DHT22;11865;45.394;10.978;2022-07-01T11:42:40;32.10;99.90
23385;DHT22;11865;45.394;10.978;2022-07-01T11:45:24;31.80;99.90
23385;DHT22;11865;45.394;10.978;2022-07-01T11:47:52;31.80;99.90
23385;DHT22;11865;45.394;10.978;2022-07-01T11:50:22;31.90;99.90
23385;DHT22;11865;45.394;10.978;2022-07-01T11:52:52;32.50;99.90
23385;DHT22;11865;45.394;10.978;2022-07-01T11:55:20;32.70;99.90
23385;DHT22;11865;45.394;10.978;2022-07-01T11:58:03;32.30;99.20
23385;DHT22;11865;45.394;10.978;2022-07-01T12:00:33;32.90;99.90
23385;DHT22;11865;45.394;10.978;2022-07-01T12:03:00;33.20;99.50
23385;DHT22;11865;45.394;10.978;2022-07-01T12:05:27;33.00;99.70
23385;DHT22;11865;45.394;10.978;2022-07-01T12:07:55;32.30;99.90
23385;DHT22;11865;45.394;10.978;2022-07-01T12:10:25;32.50;99.90
23385;DHT22;11865;45.394;10.978;2022-07-01T12:12:53;32.70;99.60
23385;DHT22;11865;45.394;10.978;2022-07-01T12:15:20;32.80;99.30
23385;DHT22;11865;45.394;10.978;2022-07-01T12:17:48;33.20;99.60
23385;DHT22;11865;45.394;10.978;2022-07-01T12:20:15;33.40;99.00
23385;DHT22;11865;45.394;10.978;2022-07-01T12:22:42;33.10;99.70
23385;DHT22;11865;45.394;10.978;2022-07-01T12:25:10;33.00;98.20
23385;DHT22;11865;45.394;10.978;2022-07-01T12:27:38;33.00;98.90
23385;DHT22;11865;45.394;10.978;2022-07-01T12:30:08;33.40;98.50
23385;DHT22;11865;45.394;10.978;2022-07-01T12:32:36;33.00;98.00
23385;DHT22;11865;45.394;10.978;2022-07-01T12:35:04;33.20;98.80
23385;DHT22;11865;45.394;10.978;2022-07-01T12:37:33;33.20;98.30
23385;DHT22;11865;45.394;10.978;2022-07-01T12:42:37;33.00;98.20
23385;DHT22;11865;45.394;10.978;2022-07-01T12:45:09;33.40;99.00
23385;DHT22;11865;45.394;10.978;2022-07-01T12:47:38;33.40;97.90
23385;DHT22;11865;45.394;10.978;2022-07-01T12:50:19;33.10;98.30
23385;DHT22;11865;45.394;10.978;2022-07-01T12:53:23;32.90;97.00
23385;DHT22;11865;45.394;10.978;2022-07-01T12:55:46;33.20;97.40
23385;DHT22;11865;45.394;10.978;2022-07-01T12:58:18;33.30;98.00
23385;DHT22;11865;45.394;10.978;2022-07-01T13:00:46;33.40;95.70
23385;DHT22;11865;45.394;10.978;2022-07-01T13:03:14;33.10;96.80
23385;DHT22;11865;45.394;10.978;2022-07-01T13:05:45;33.10;96.90
23385;DHT22;11865;45.394;10.978;2022-07-01T13:08:12;32.80;96.00
23385;DHT22;11865;45.394;10.978;2022-07-01T13:10:39;32.90;95.90
23385;DHT22;11865;45.394;10.978;2022-07-01T13:13:07;33.10;96.00
23385;DHT22;11865;45.394;10.978;2022-07-01T13:15:34;33.30;94.20
23385;DHT22;11865;45.394;10.978;2022-07-01T13:18:02;33.20;93.60
23385;DHT22;11865;45.394;10.978;2022-07-01T13:20:30;33.40;94.30
23385;DHT22;11865;45.394;10.978;2022-07-01T13:22:57;33.50;95.30
23385;DHT22;11865;45.394;10.978;2022-07-01T13:25:25;33.60;96.10
23385;DHT22;11865;45.394;10.978;2022-07-01T13:27:52;33.80;94.20
23385;DHT22;11865;45.394;10.978;2022-07-01T13:30:20;33.80;94.90
23385;DHT22;11865;45.394;10.978;2022-07-01T13:32:47;33.80;92.60
23385;DHT22;11865;45.394;10.978;2022-07-01T13:35:19;33.80;92.90
23385;DHT22;11865;45.394;10.978;2022-07-01T13:37:47;34.10;94.50
23385;DHT22;11865;45.394;10.978;2022-07-01T13:40:14;34.40;94.50
23385;DHT22;11865;45.394;10.978;2022-07-01T13:42:42;34.60;94.10
23385;DHT22;11865;45.394;10.978;2022-07-01T13:45:09;34.40;93.20
23385;DHT22;11865;45.394;10.978;2022-07-01T13:47:36;34.10;94.10
23385;DHT22;11865;45.394;10.978;2022-07-01T13:50:04;33.90;93.80
23385;DHT22;11865;45.394;10.978;2022-07-01T13:52:31;34.20;95.20
23385;DHT22;11865;45.394;10.978;2022-07-01T13:54:58;34.40;94.30
23385;DHT22;11865;45.394;10.978;2022-07-01T13:57:26;34.30;94.00
23385;DHT22;11865;45.394;10.978;2022-07-01T13:59:53;33.90;94.30
23385;DHT22;11865;45.394;10.978;2022-07-01T14:02:20;33.80;94.10
23385;DHT22;11865;45.394;10.978;2022-07-01T14:04:48;33.80;94.30
23385;DHT22;11865;45.394;10.978;2022-07-01T14:07:15;33.90;94.50
23385;DHT22;11865;45.394;10.978;2022-07-01T14:09:43;34.30;94.10
23385;DHT22;11865;45.394;10.978;2022-07-01T14:12:11;34.50;93.30
23385;DHT22;11865;45.394;10.978;2022-07-01T14:14:47;34.70;92.80
23385;DHT22;11865;45.394;10.978;2022-07-01T14:17:15;34.40;93.60
23385;DHT22;11865;45.394;10.978;2022-07-01T14:19:42;34.50;94.00
23385;DHT22;11865;45.394;10.978;2022-07-01T14:22:09;34.80;93.00
23385;DHT22;11865;45.394;10.978;2022-07-01T14:24:36;34.60;93.80
23385;DHT22;11865;45.394;10.978;2022-07-01T14:27:04;34.20;92.80
23385;DHT22;11865;45.394;10.978;2022-07-01T14:29:32;34.40;93.00
23385;DHT22;11865;45.394;10.978;2022-07-01T14:31:59;34.60;91.20
23385;DHT22;11865;45.394;10.978;2022-07-01T14:34:27;34.60;90.40
23385;DHT22;11865;45.394;10.978;2022-07-01T14:36:54;34.50;90.00
23385;DHT22;11865;45.394;10.978;2022-07-01T14:39:21;34.20;89.00
23385;DHT22;11865;45.394;10.978;2022-07-01T14:41:48;34.50;90.70
23385;DHT22;11865;45.394;10.978;2022-07-01T14:44:23;34.60;90.80
23385;DHT22;11865;45.394;10.978;2022-07-01T14:46:50;34.20;90.90
23385;DHT22;11865;45.394;10.978;2022-07-01T14:49:18;33.90;91.80
23385;DHT22;11865;45.394;10.978;2022-07-01T14:51:46;34.20;92.50
23385;DHT22;11865;45.394;10.978;2022-07-01T14:54:13;34.30;92.90
23385;DHT22;11865;45.394;10.978;2022-07-01T14:56:40;34.70;91.90
23385;DHT22;11865;45.394;10.978;2022-07-01T14:59:07;34.90;92.70
23385;DHT22;11865;45.394;10.978;2022-07-01T15:01:38;35.00;92.10
23385;DHT22;11865;45.394;10.978;2022-07-01T15:04:05;34.40;91.20
23385;DHT22;11865;45.394;10.978;2022-07-01T15:06:33;34.40;92.10
23385;DHT22;11865;45.394;10.978;2022-07-01T15:09:00;34.40;91.10
23385;DHT22;11865;45.394;10.978;2022-07-01T15:11:27;34.20;91.10
23385;DHT22;11865;45.394;10.978;2022-07-01T15:13:54;34.00;91.50
23385;DHT22;11865;45.394;10.978;2022-07-01T15:16:22;33.80;90.30
23385;DHT22;11865;45.394;10.978;2022-07-01T15:18:50;33.70;90.10
23385;DHT22;11865;45.394;10.978;2022-07-01T15:21:18;33.90;90.10
23385;DHT22;11865;45.394;10.978;2022-07-01T15:23:45;33.60;90.90
23385;DHT22;11865;45.394;10.978;2022-07-01T15:26:13;33.50;90.50
23385;DHT22;11865;45.394;10.978;2022-07-01T15:28:40;33.90;90.80
23385;DHT22;11865;45.394;10.978;2022-07-01T15:31:07;34.00;90.90
23385;DHT22;11865;45.394;10.978;2022-07-01T15:33:52;33.80;90.20
23385;DHT22;11865;45.394;10.978;2022-07-01T15:36:21;34.20;90.50
23385;DHT22;11865;45.394;10.978;2022-07-01T15:38:48;34.30;90.30
23385;DHT22;11865;45.394;10.978;2022-07-01T15:41:15;34.00;89.00
23385;DHT22;11865;45.394;10.978;2022-07-01T15:43:43;34.10;87.70
23385;DHT22;11865;45.394;10.978;2022-07-01T15:46:10;33.80;84.70
23385;DHT22;11865;45.394;10.978;2022-07-01T15:48:37;33.90;88.40
23385;DHT22;11865;45.394;10.978;2022-07-01T15:51:05;33.80;82.20
23385;DHT22;11865;45.394;10.978;2022-07-01T15:53:33;33.90;77.50
23385;DHT22;11865;45.394;10.978;2022-07-01T15:56:00;33.90;81.50
23385;DHT22;11865;45.394;10.978;2022-07-01T15:58:27;33.90;80.70
23385;DHT22;11865;45.394;10.978;2022-07-01T16:00:57;33.70;83.40
23385;DHT22;11865;45.394;10.978;2022-07-01T16:03:24;33.70;83.10
23385;DHT22;11865;45.394;10.978;2022-07-01T16:05:53;33.30;84.70
23385;DHT22;11865;45.394;10.978;2022-07-01T16:08:26;33.40;86.50
23385;DHT22;11865;45.394;10.978;2022-07-01T16:10:58;33.30;84.00
23385;DHT22;11865;45.394;10.978;2022-07-01T16:13:26;33.40;82.70
23385;DHT22;11865;45.394;10.978;2022-07-01T16:15:54;33.30;86.70
23385;DHT22;11865;45.394;10.978;2022-07-01T16:18:23;33.30;85.00
23385;DHT22;11865;45.394;10.978;2022-07-01T16:20:51;33.40;90.40
23385;DHT22;11865;45.394;10.978;2022-07-01T16:23:23;33.40;90.40
23385;DHT22;11865;45.394;10.978;2022-07-01T16:25:54;33.60;91.10
23385;DHT22;11865;45.394;10.978;2022-07-01T16:28:23;33.80;90.30
23385;DHT22;11865;45.394;10.978;2022-07-01T16:30:52;33.70;89.90
23385;DHT22;11865;45.394;10.978;2022-07-01T16:33:20;33.80;90.00
23385;DHT22;11865;45.394;10.978;2022-07-01T16:35:48;33.40;90.60
23385;DHT22;11865;45.394;10.978;2022-07-01T16:38:24;33.60;89.80
23385;DHT22;11865;45.394;10.978;2022-07-01T16:40:57;33.60;88.00
23385;DHT22;11865;45.394;10.978;2022-07-01T16:46:08;33.40;90.10
23385;DHT22;11865;45.394;10.978;2022-07-01T16:48:42;33.40;89.50
23385;DHT22;11865;45.394;10.978;2022-07-01T16:51:12;33.60;90.00
23385;DHT22;11865;45.394;10.978;2022-07-01T16:53:42;33.40;89.60
23385;DHT22;11865;45.394;10.978;2022-07-01T16:56:12;33.50;88.80
23385;DHT22;11865;45.394;10.978;2022-07-01T16:58:42;33.50;89.50
23385;DHT22;11865;45.394;10.978;2022-07-01T17:01:12;33.50;89.50
23385;DHT22;11865;45.394;10.978;2022-07-01T17:03:40;33.30;90.70
23385;DHT22;11865;45.394;10.978;2022-07-01T17:06:07;33.20;88.90
23385;DHT22;11865;45.394;10.978;2022-07-01T17:08:34;33.30;89.80
23385;DHT22;11865;45.394;10.978;2022-07-01T17:11:02;33.20;89.30
23385;DHT22;11865;45.394;10.978;2022-07-01T17:13:29;33.00;89.60
23385;DHT22;11865;45.394;10.978;2022-07-01T17:15:57;32.90;89.80
23385;DHT22;11865;45.394;10.978;2022-07-01T17:18:24;32.70;88.70
23385;DHT22;11865;45.394;10.978;2022-07-01T17:20:52;32.80;89.10
23385;DHT22;11865;45.394;10.978;2022-07-01T17:23:24;32.90;88.40
23385;DHT22;11865;45.394;10.978;2022-07-01T17:25:55;32.90;89.50
23385;DHT22;11865;45.394;10.978;2022-07-01T17:33:47;33.10;90.10
23385;DHT22;11865;45.394;10.978;2022-07-01T17:36:21;33.10;88.20
23385;DHT22;11865;45.394;10.978;2022-07-01T17:41:17;33.30;88.60
23385;DHT22;11865;45.394;10.978;2022-07-01T17:43:49;33.20;87.20
23385;DHT22;11865;45.394;10.978;2022-07-01T17:46:20;33.30;88.80
23385;DHT22;11865;45.394;10.978;2022-07-01T17:48:48;33.30;88.20
23385;DHT22;11865;45.394;10.978;2022-07-01T17:51:16;33.20;87.90
23385;DHT22;11865;45.394;10.978;2022-07-01T17:53:45;32.30;97.00
23385;DHT22;11865;45.394;10.978;2022-07-01T17:56:13;31.90;98.80
23385;DHT22;11865;45.394;10.978;2022-07-01T17:58:40;31.40;98.50
23385;DHT22;11865;45.394;10.978;2022-07-01T18:01:11;31.20;99.20
23385;DHT22;11865;45.394;10.978;2022-07-01T18:03:40;30.80;99.50
23385;DHT22;11865;45.394;10.978;2022-07-01T18:06:07;30.50;99.50
23385;DHT22;11865;45.394;10.978;2022-07-01T18:08:35;30.40;99.50
23385;DHT22;11865;45.394;10.978;2022-07-01T18:13:37;30.60;99.80
23385;DHT22;11865;45.394;10.978;2022-07-01T18:16:08;30.70;99.80
23385;DHT22;11865;45.394;10.978;2022-07-01T18:18:40;30.60;99.80
23385;DHT22;11865;45.394;10.978;2022-07-01T18:21:09;30.60;99.90
23385;DHT22;11865;45.394;10.978;2022-07-01T18:23:42;30.50;99.90
23385;DHT22;11865;45.394;10.978;2022-07-01T18:26:14;30.50;99.90
23385;DHT22;11865;45.394;10.978;2022-07-01T18:31:13;30.30;99.90
23385;DHT22;11865;45.394;10.978;2022-07-01T18:34:04;30.20;99.90
23385;DHT22;11865;45.394;10.978;2022-07-01T18:36:31;30.20;99.90
23385;DHT22;11865;45.394;10.978;2022-07-01T18:38:59;30.00;99.90
23385;DHT22;11865;45.394;10.978;2022-07-01T18:41:26;30.10;99.90
23385;DHT22;11865;45.394;10.978;2022-07-01T18:43:54;29.90;99.90
23385;DHT22;11865;45.394;10.978;2022-07-01T18:46:21;29.80;99.90
23385;DHT22;11865;45.394;10.978;2022-07-01T18:48:48;29.70;99.90
23385;DHT22;11865;45.394;10.978;2022-07-01T18:51:17;29.50;99.90
23385;DHT22;11865;45.394;10.978;2022-07-01T18:53:44;29.60;99.90
23385;DHT22;11865;45.394;10.978;2022-07-01T18:56:11;29.30;99.90
23385;DHT22;11865;45.394;10.978;2022-07-01T18:58:39;29.40;99.90
23385;DHT22;11865;45.394;10.978;2022-07-01T19:01:06;29.20;99.90
23385;DHT22;11865;45.394;10.978;2022-07-01T19:03:33;29.30;99.90
23385;DHT22;11865;45.394;10.978;2022-07-01T19:06:05;29.30;99.90
23385;DHT22;11865;45.394;10.978;2022-07-01T19:08:33;29.10;99.90
23385;DHT22;11865;45.394;10.978;2022-07-01T19:11:03;29.00;99.90
23385;DHT22;11865;45.394;10.978;2022-07-01T19:13:30;28.80;99.90
23385;DHT22;11865;45.394;10.978;2022-07-01T19:15:58;28.90;99.90
23385;DHT22;11865;45.394;10.978;2022-07-01T19:18:25;28.80;99.90
23385;DHT22;11865;45.394;10.978;2022-07-01T19:20:52;28.70;99.90
23385;DHT22;11865;45.394;10.978;2022-07-01T19:23:20;28.70;99.90
23385;DHT22;11865;45.394;10.978;2022-07-01T19:25:47;28.60;99.90
23385;DHT22;11865;45.394;10.978;2022-07-01T19:28:15;28.50;99.90
23385;DHT22;11865;45.394;10.978;2022-07-01T19:30:42;28.50;99.90
23385;DHT22;11865;45.394;10.978;2022-07-01T19:33:13;28.30;99.90
23385;DHT22;11865;45.394;10.978;2022-07-01T19:35:41;28.20;99.90
23385;DHT22;11865;45.394;10.978;2022-07-01T19:38:08;28.00;99.90
23385;DHT22;11865;45.394;10.978;2022-07-01T19:40:37;27.90;99.90
23385;DHT22;11865;45.394;10.978;2022-07-01T19:43:04;27.80;99.90
23385;DHT22;11865;45.394;10.978;2022-07-01T19:45:32;27.80;99.90
23385;DHT22;11865;45.394;10.978;2022-07-01T19:47:59;27.80;99.90
23385;DHT22;11865;45.394;10.978;2022-07-01T19:50:26;27.80;99.90
23385;DHT22;11865;45.394;10.978;2022-07-01T19:52:53;27.60;99.90
23385;DHT22;11865;45.394;10.978;2022-07-01T19:55:21;27.60;99.90
23385;DHT22;11865;45.394;10.978;2022-07-01T19:57:48;27.60;99.90
